Hlavní strana
METAR-TAF:

METAR-TAF

Letiště :

Edenton, Severní Karolína, Spojené státy americké

zeměpisná šířka: 36-01-40N, zeměpisná délka: 076-34-02W, výška: 6 m

Aktuální stav počasí

Zpráva byla vytvořena před 22 minutami, v 17:35 UTC
Západní vítr 13 kt s nárazy do 19 kt
Teplota 10°C
Vlhkost vzduchu 43%
Tlak 1013 hPa
Viditelnost: 16.1 km
Jasno

METAR: KEDE 271735Z AUTO 27013G19KT 10SM CLR 10/M02 A2992 RMK AO2 T01011018

Čas: 12:57 (17:57 UTC)


TAF: chybějící

Stav a předpovědi počasí z více než 4 000 letišť (zprávy METAR a TAF).

Červené a žluté tečky na mapě představují dostupné meteorologické stanice.

Když kurzor umístíte na tečku, zobrazí se název stanice.

Pak kliknutím zobrazíte stav a předpověď počasí.

Chcete-li změnit mapu, kliknutím na zelené tlačítko se znaménkem +mapu přiblížíte, kliknutím na zelené tlačítko se znaménkem – mapu oddálíte a kliknutím na zelené šipky přejdete na sousední mapy.


METAR-TAF: